createdAt,value
2022-10-24T00:03:07.204Z,0
2022-10-24T00:08:11.293Z,0
2022-10-24T00:13:15.431Z,0
2022-10-24T00:18:19.583Z,0
2022-10-24T00:23:23.773Z,0
2022-10-24T00:28:27.895Z,0
2022-10-24T00:33:32.091Z,0
2022-10-24T00:38:36.219Z,0
2022-10-24T00:43:40.429Z,0
2022-10-24T00:48:44.582Z,0
2022-10-24T00:53:48.793Z,0
2022-10-24T00:58:52.862Z,0
2022-10-24T01:03:57.060Z,0
2022-10-24T01:09:01.223Z,0
2022-10-24T01:14:05.372Z,0
2022-10-24T01:19:09.549Z,0
2022-10-24T01:24:13.688Z,0
2022-10-24T01:29:17.853Z,0
2022-10-24T01:34:21.999Z,0
2022-10-24T01:39:26.145Z,0
2022-10-24T01:44:28.482Z,0
2022-10-24T01:49:32.588Z,0
2022-10-24T01:54:34.846Z,0
2022-10-24T01:59:39.037Z,0
2022-10-24T02:04:43.215Z,0
2022-10-24T02:09:47.494Z,0
2022-10-24T02:14:51.484Z,0
2022-10-24T02:19:55.700Z,0
2022-10-24T02:24:59.859Z,0
2022-10-24T02:30:03.974Z,0
2022-10-24T02:35:08.143Z,0
2022-10-24T02:40:12.289Z,0
2022-10-24T02:45:16.487Z,0
2022-10-24T02:50:20.603Z,0
2022-10-24T02:55:24.769Z,0
2022-10-24T03:00:28.991Z,0
2022-10-24T03:05:33.112Z,0
2022-10-24T03:10:37.258Z,0
2022-10-24T03:15:41.490Z,0
2022-10-24T03:20:45.567Z,0
2022-10-24T03:25:49.753Z,0
2022-10-24T03:30:53.882Z,0
2022-10-24T03:35:58.061Z,0
2022-10-24T03:41:00.335Z,0
2022-10-24T03:46:04.520Z,0
2022-10-24T03:51:08.651Z,0
2022-10-24T03:56:12.772Z,0
2022-10-24T04:01:17.043Z,0
2022-10-24T04:06:21.136Z,0
2022-10-24T04:11:25.278Z,0
2022-10-24T04:16:29.448Z,0
2022-10-24T04:21:33.603Z,0
2022-10-24T04:26:37.770Z,0
2022-10-24T04:31:41.954Z,0
2022-10-24T04:36:46.071Z,0
2022-10-24T04:41:50.249Z,0
2022-10-24T04:46:54.434Z,0
2022-10-24T04:51:58.597Z,0
2022-10-24T04:57:02.712Z,0
2022-10-24T05:02:06.875Z,0
2022-10-24T05:07:11.033Z,0
2022-10-24T05:12:15.276Z,0
2022-10-24T05:17:19.359Z,0
2022-10-24T05:22:23.497Z,0
2022-10-24T05:27:25.790Z,0
2022-10-24T05:32:29.989Z,0
2022-10-24T05:37:32.236Z,0
2022-10-24T05:42:36.392Z,0
2022-10-24T05:47:40.547Z,0
2022-10-24T05:52:47.147Z,4
2022-10-24T05:57:48.976Z,10
2022-10-24T06:02:53.008Z,25
2022-10-24T06:07:57.184Z,50
2022-10-24T06:13:01.327Z,85
2022-10-24T06:18:05.517Z,130
2022-10-24T06:23:09.660Z,191
2022-10-24T06:28:13.845Z,275
2022-10-24T06:33:18.004Z,396
2022-10-24T06:38:22.151Z,482
2022-10-24T06:43:26.272Z,596
2022-10-24T06:48:30.465Z,690
2022-10-24T06:53:34.585Z,885
2022-10-24T06:58:38.745Z,1044
2022-10-24T07:03:42.949Z,1145
2022-10-24T07:08:47.187Z,1424
2022-10-24T07:13:52.477Z,1493
2022-10-24T07:18:55.436Z,1598
2022-10-24T07:34:04.120Z,2712
2022-10-24T07:39:08.253Z,3130
2022-10-24T07:44:10.561Z,3100
2022-10-24T07:49:14.727Z,3468
2022-10-24T07:54:18.990Z,3314
2022-10-24T07:59:40.875Z,4035
2022-10-24T08:04:27.214Z,3115
2022-10-24T08:14:35.609Z,2413
2022-10-24T08:19:41.197Z,3123
2022-10-24T08:24:43.819Z,4816
2022-10-24T08:29:48.018Z,4624
2022-10-24T08:34:52.152Z,4337
2022-10-24T08:39:54.426Z,4300
2022-10-24T08:44:58.597Z,3840
2022-10-24T08:50:02.835Z,4332
2022-10-24T08:55:07.282Z,4333
2022-10-24T09:00:11.104Z,3626
2022-10-24T09:05:15.209Z,3222
2022-10-24T09:10:19.411Z,3345
2022-10-24T09:15:23.533Z,3165
2022-10-24T09:20:27.727Z,3960
2022-10-24T09:25:31.846Z,3218
2022-10-24T09:30:36.018Z,2796
2022-10-24T09:35:40.169Z,2361
2022-10-24T09:40:44.351Z,3389
2022-10-24T09:45:48.471Z,5381
2022-10-24T09:50:52.664Z,3431
2022-10-24T09:55:56.819Z,3077
2022-10-24T10:01:01.108Z,3525
2022-10-24T10:06:05.106Z,2192
2022-10-24T10:11:09.291Z,2662
2022-10-24T10:16:15.916Z,2583
2022-10-24T10:21:17.621Z,4191
2022-10-24T10:26:19.899Z,7213
2022-10-24T10:31:24.030Z,3951
2022-10-24T10:36:26.305Z,4293
2022-10-24T10:41:30.453Z,6352
2022-10-24T10:46:34.644Z,5590
2022-10-24T10:51:38.781Z,5436
2022-10-24T10:56:42.942Z,5633
2022-10-24T11:01:47.323Z,4418
2022-10-24T11:06:51.326Z,4052
2022-10-24T11:11:55.478Z,2626
2022-10-24T11:16:59.572Z,2871
2022-10-24T11:22:03.794Z,2653
2022-10-24T11:27:07.920Z,4614
2022-10-24T11:32:12.064Z,4386
2022-10-24T11:37:16.189Z,3365
2022-10-24T11:42:20.486Z,4469
2022-10-24T11:47:24.530Z,4600
2022-10-24T11:52:28.699Z,4586
2022-10-24T11:57:32.859Z,3264
2022-10-24T12:02:37.059Z,2392
2022-10-24T12:07:41.193Z,1871
2022-10-24T12:12:45.347Z,2224
2022-10-24T12:17:49.487Z,2120
2022-10-24T12:22:51.805Z,3656
2022-10-24T12:27:55.932Z,2503
2022-10-24T12:33:00.318Z,2931
2022-10-24T12:38:04.205Z,2020
2022-10-24T12:43:08.443Z,2523
2022-10-24T12:48:12.570Z,3680
2022-10-24T12:53:16.709Z,2354
2022-10-24T12:58:20.855Z,4838
2022-10-24T13:03:25.027Z,4926
2022-10-24T13:13:33.337Z,5378
2022-10-24T13:18:37.509Z,4097
2022-10-24T13:23:41.678Z,4412
2022-10-24T13:28:45.851Z,5492
2022-10-24T13:33:49.999Z,6003
2022-10-24T13:38:54.170Z,4198
2022-10-24T13:43:58.324Z,4744
2022-10-24T13:49:02.494Z,4760
2022-10-24T13:54:06.609Z,3116
2022-10-24T13:59:10.801Z,3079
2022-10-24T14:04:14.926Z,4635
2022-10-24T14:09:19.123Z,5125
2022-10-24T14:14:21.383Z,4107
2022-10-24T14:19:28.489Z,3766
2022-10-24T14:24:27.813Z,2200
2022-10-24T14:29:31.972Z,4557
2022-10-24T14:34:36.496Z,3543
2022-10-24T14:39:40.326Z,3289
2022-10-24T14:44:44.439Z,3498
2022-10-24T14:49:48.603Z,3170
2022-10-24T14:54:52.720Z,3157
2022-10-24T14:59:56.923Z,2927
2022-10-24T15:05:01.048Z,1685
2022-10-24T15:10:07.908Z,1881
2022-10-24T15:15:09.389Z,2790
2022-10-24T15:20:13.554Z,2332
2022-10-24T15:25:17.727Z,1962
2022-10-24T15:30:21.870Z,1308
2022-10-24T15:35:26.036Z,916
2022-10-24T15:40:30.190Z,930
2022-10-24T15:45:34.361Z,695
2022-10-24T15:50:38.517Z,390
2022-10-24T15:55:42.687Z,178
2022-10-24T16:00:46.870Z,186
2022-10-24T16:05:50.944Z,129
2022-10-24T16:10:53.273Z,128
2022-10-24T16:15:57.398Z,141
2022-10-24T16:20:59.797Z,62
2022-10-24T16:26:03.860Z,25
2022-10-24T16:31:08.001Z,17
2022-10-24T16:36:12.142Z,15
2022-10-24T16:41:16.287Z,9
2022-10-24T16:46:20.469Z,8
2022-10-24T16:51:24.638Z,2
2022-10-24T16:56:28.775Z,0
2022-10-24T17:01:33.097Z,0
2022-10-24T17:06:37.140Z,0
2022-10-24T17:11:46.001Z,0
2022-10-24T17:16:45.431Z,0
2022-10-24T17:21:49.569Z,0
2022-10-24T17:26:53.747Z,0
2022-10-24T17:31:57.910Z,0
2022-10-24T17:37:02.064Z,0
2022-10-24T17:42:06.259Z,0
2022-10-24T17:47:10.402Z,0
2022-10-24T17:52:14.616Z,0
2022-10-24T17:57:18.700Z,0
2022-10-24T18:02:22.921Z,0
2022-10-24T18:07:25.141Z,0
2022-10-24T18:12:29.317Z,0
2022-10-24T18:17:33.453Z,0
2022-10-24T18:22:35.742Z,0
2022-10-24T18:27:39.940Z,0
2022-10-24T18:32:44.576Z,0
2022-10-24T18:37:48.264Z,0
2022-10-24T18:42:52.401Z,0
2022-10-24T18:47:56.565Z,0
2022-10-24T18:53:00.745Z,0
2022-10-24T18:58:04.851Z,0
2022-10-24T19:03:09.009Z,0
2022-10-24T19:08:13.178Z,0
2022-10-24T19:13:17.388Z,0
2022-10-24T19:18:21.493Z,0
2022-10-24T19:23:25.685Z,0
2022-10-24T19:28:29.854Z,0
2022-10-24T19:33:33.999Z,0
2022-10-24T19:38:38.154Z,0
2022-10-24T19:43:42.306Z,0
2022-10-24T19:48:46.484Z,0
2022-10-24T19:53:50.641Z,0
2022-10-24T19:58:54.800Z,0
2022-10-24T20:03:58.947Z,0
2022-10-24T20:09:01.208Z,0
2022-10-24T20:14:05.373Z,0
2022-10-24T20:19:09.541Z,0
2022-10-24T20:24:13.690Z,0
2022-10-24T20:29:17.892Z,0
2022-10-24T20:34:22.012Z,0
2022-10-24T20:39:26.171Z,0
2022-10-24T20:44:30.330Z,0
2022-10-24T20:49:34.500Z,0
2022-10-24T20:54:38.668Z,0
2022-10-24T20:59:42.983Z,0
2022-10-24T21:04:46.982Z,0
2022-10-24T21:09:51.113Z,0
2022-10-24T21:14:55.712Z,0
2022-10-24T21:19:59.436Z,0
2022-10-24T21:25:03.679Z,0
2022-10-24T21:30:10.978Z,0
2022-10-24T21:35:11.968Z,0
2022-10-24T21:40:16.090Z,0
2022-10-24T21:45:20.243Z,0
2022-10-24T21:50:24.418Z,0
2022-10-24T21:55:26.693Z,0
2022-10-24T22:00:30.893Z,0
2022-10-24T22:05:33.133Z,0
2022-10-24T22:10:37.277Z,0
2022-10-24T22:15:39.596Z,0
2022-10-24T22:20:43.708Z,0
2022-10-24T22:25:47.872Z,0
2022-10-24T22:30:52.063Z,0
2022-10-24T22:35:56.237Z,0
2022-10-24T22:41:00.355Z,0
2022-10-24T22:46:04.527Z,0
2022-10-24T22:51:08.706Z,0
2022-10-24T22:56:12.843Z,0
2022-10-24T23:01:17.223Z,0
2022-10-24T23:06:21.310Z,0
2022-10-24T23:11:25.291Z,0
2022-10-24T23:16:29.525Z,0
2022-10-24T23:21:33.667Z,0
2022-10-24T23:26:37.820Z,0
2022-10-24T23:31:41.987Z,0
2022-10-24T23:36:46.114Z,0
2022-10-24T23:41:50.301Z,0
2022-10-24T23:46:54.455Z,0
2022-10-24T23:51:58.582Z,0
2022-10-24T23:57:02.761Z,0
